Time;durP1;ratioP1;P1;durP2;ratioP2;P2;SDS_P1;SDS_P2;PMS_P1;PMS_P2;Temp;Humidity;BMP_temperature;BMP_pressure;BME280_temperature;BME280_humidity;BME280_pressure;Samples;Min_cycle;Max_cycle;Signal;HPM_P1;HPM_P2
2021/06/10 00:00:22;;;;;;;14.95;13.48;;;;;;;18.97;67.16;99312.03;3599461;40;20080;-60
2021/06/10 00:02:50;;;;;;;14.98;13.60;;;;;;;18.92;67.42;99311.94;3599300;39;20365;-60
2021/06/10 00:05:20;;;;;;;15.02;13.50;;;;;;;18.84;67.35;99314.97;3599328;40;20028;-61
2021/06/10 00:07:48;;;;;;;15.90;13.30;;;;;;;18.73;67.61;99311.22;3598595;40;20080;-61
2021/06/10 00:10:18;;;;;;;14.25;13.05;;;;;;;18.61;68.28;99313.06;3599022;40;20367;-63
2021/06/10 00:12:46;;;;;;;17.92;13.70;;;;;;;18.53;68.52;99314.22;3598869;39;20055;-61
2021/06/10 00:15:16;;;;;;;15.05;13.57;;;;;;;18.54;68.85;99310.50;3598874;40;20084;-63
2021/06/10 00:17:45;;;;;;;13.48;12.25;;;;;;;18.51;68.60;99319.81;3598514;40;20039;-61
2021/06/10 00:20:15;;;;;;;18.90;12.95;;;;;;;18.46;68.67;99316.22;3589446;40;20106;-61
2021/06/10 00:22:42;;;;;;;14.90;13.48;;;;;;;18.58;68.71;99316.22;3589499;40;20076;-63
2021/06/10 00:25:11;;;;;;;15.23;13.63;;;;;;;18.67;68.50;99321.00;3589351;40;20083;-62
2021/06/10 00:27:39;;;;;;;14.85;13.13;;;;;;;18.63;68.17;99322.50;3598370;40;20048;-62
2021/06/10 00:30:09;;;;;;;14.38;13.05;;;;;;;18.56;68.49;99321.78;3598837;40;20044;-63
2021/06/10 00:32:38;;;;;;;15.60;13.82;;;;;;;18.51;68.54;99319.81;3598689;39;20032;-62
2021/06/10 00:35:07;;;;;;;16.08;14.25;;;;;;;18.46;68.59;99322.38;3598936;40;20076;-61
2021/06/10 00:37:35;;;;;;;15.07;13.57;;;;;;;18.42;69.12;99326.56;3589069;40;20047;-61
2021/06/10 00:40:04;;;;;;;15.75;14.15;;;;;;;18.41;68.87;99327.63;3598631;40;20428;-62
2021/06/10 00:42:31;;;;;;;15.82;14.25;;;;;;;18.39;69.02;99323.53;3598783;39;20052;-61
2021/06/10 00:44:59;;;;;;;17.08;12.75;;;;;;;18.40;68.91;99327.81;3598865;40;20401;-61
2021/06/10 00:47:26;;;;;;;15.23;13.73;;;;;;;18.42;69.20;99331.09;3598281;40;20353;-61
2021/06/10 00:49:53;;;;;;;13.55;12.25;;;;;;;18.35;69.12;99333.06;3598689;40;20312;-61
2021/06/10 00:52:22;;;;;;;14.30;12.80;;;;;;;18.41;69.10;99329.44;3598604;39;20145;-62
2021/06/10 00:54:49;;;;;;;15.07;13.55;;;;;;;18.40;69.15;99331.31;3598697;40;20052;-62
2021/06/10 00:57:17;;;;;;;16.58;14.27;;;;;;;18.32;69.31;99329.78;3598428;40;20040;-62
2021/06/10 00:59:44;;;;;;;16.20;14.68;;;;;;;18.22;69.60;99328.72;3598468;40;20048;-62
2021/06/10 01:02:11;;;;;;;14.95;13.45;;;;;;;18.16;69.60;99326.97;3598362;39;20088;-62
2021/06/10 01:04:38;;;;;;;17.60;13.88;;;;;;;18.17;69.32;99325.94;3598566;40;20056;-62
2021/06/10 01:07:10;;;;;;;15.18;13.68;;;;;;;18.17;69.86;99323.25;3588671;40;20091;-62
2021/06/10 01:09:45;;;;;;;15.23;13.55;;;;;;;18.20;69.89;99320.09;3598747;40;20102;-61
2021/06/10 01:12:17;;;;;;;14.25;12.95;;;;;;;18.26;69.56;99322.69;3598582;39;20132;-62
2021/06/10 01:14:54;;;;;;;18.45;13.75;;;;;;;18.20;69.52;99317.44;3599471;40;20487;-61
2021/06/10 01:17:22;;;;;;;16.05;13.52;;;;;;;18.15;69.63;99320.78;3598421;40;20052;-62
2021/06/10 01:20:06;;;;;;;15.57;13.48;;;;;;;18.19;69.30;99318.47;3589058;40;20055;-62
2021/06/10 01:22:38;;;;;;;;;;;;;;;18.19;69.36;99321.16;3590048;40;20044;-62
2021/06/10 01:25:19;;;;;;;14.70;13.27;;;;;;;18.20;68.98;99328.94;3589589;40;20212;-62
2021/06/10 01:27:50;;;;;;;16.23;14.52;;;;;;;18.17;69.18;99321.41;3598522;40;20080;-62
2021/06/10 01:30:22;;;;;;;15.63;14.02;;;;;;;18.14;69.42;99327.19;3598569;40;20055;-63
2021/06/10 01:32:54;;;;;;;16.58;14.40;;;;;;;18.01;69.80;99324.72;3598634;39;20076;-62
2021/06/10 01:35:25;;;;;;;15.30;13.90;;;;;;;18.03;69.39;99331.47;3598761;40;20051;-62
2021/06/10 01:37:55;;;;;;;15.82;14.38;;;;;;;18.02;69.73;99323.69;3598705;40;20052;-62
2021/06/10 01:40:26;;;;;;;15.45;13.93;;;;;;;17.94;69.89;99322.13;3598519;40;20052;-62
2021/06/10 01:42:56;;;;;;;16.52;15.02;;;;;;;17.89;69.71;99327.38;3598285;39;20044;-62
2021/06/10 01:45:23;;;;;;;16.52;15.02;;;;;;;17.76;69.83;99323.00;3598279;40;20055;-61
2021/06/10 01:47:52;;;;;;;16.70;15.10;;;;;;;17.64;70.39;99335.47;3598495;40;20056;-62
2021/06/10 01:50:22;;;;;;;15.70;14.15;;;;;;;17.46;71.17;99327.47;3598573;40;20048;-62
2021/06/10 01:52:52;;;;;;;16.63;14.95;;;;;;;17.43;71.09;99330.59;3598102;39;20047;-62
2021/06/10 01:55:22;;;;;;;15.65;13.65;;;;;;;17.36;71.41;99330.69;3598363;40;20047;-62
2021/06/10 01:57:51;;;;;;;15.68;13.77;;;;;;;17.40;71.74;99333.72;3588691;39;20047;-62
2021/06/10 02:00:22;;;;;;;14.52;12.98;;;;;;;17.47;71.33;99331.78;3600122;40;20044;-62
2021/06/10 02:02:51;;;;;;;15.20;13.60;;;;;;;17.54;71.20;99327.97;3599909;39;20044;-62
2021/06/10 02:05:20;;;;;;;15.40;14.00;;;;;;;17.57;71.04;99322.19;3599817;40;20055;-61
2021/06/10 02:07:50;;;;;;;14.70;13.35;;;;;;;17.45;71.13;99326.66;3599440;40;20056;-61
2021/06/10 02:10:22;;;;;;;14.77;13.27;;;;;;;17.45;71.27;99325.84;3600131;40;20052;-61
2021/06/10 02:12:49;;;;;;;14.90;13.45;;;;;;;17.49;71.01;99329.72;3599850;39;20047;-62
2021/06/10 02:15:18;;;;;;;15.48;13.88;;;;;;;17.45;71.13;99331.19;3599956;40;20047;-61
2021/06/10 02:17:49;;;;;;;18.70;14.57;;;;;;;17.37;71.08;99326.16;3599769;40;20044;-62
2021/06/10 02:20:20;;;;;;;15.73;14.15;;;;;;;17.32;71.33;99327.66;3603150;40;20339;-61
2021/06/10 02:22:49;;;;;;;15.45;14.05;;;;;;;17.27;71.31;99324.03;3602394;39;20137;-61
2021/06/10 02:25:17;;;;;;;17.48;14.40;;;;;;;17.35;71.52;99321.03;3602842;40;20106;-61
2021/06/10 02:27:44;;;;;;;15.50;13.90;;;;;;;17.39;71.42;99316.88;3600663;40;20046;-62
2021/06/10 02:30:13;;;;;;;15.77;14.10;;;;;;;17.37;71.30;99328.81;3600888;40;20059;-62
2021/06/10 02:32:41;;;;;;;17.08;14.35;;;;;;;17.31;71.10;99330.56;3636534;22;20032;-64
2021/06/10 02:35:12;;;;;;;16.60;14.70;;;;;;;17.26;71.55;99333.06;3619568;39;20358;-66
2021/06/10 02:37:45;;;;;;;16.10;14.40;;;;;;;17.15;71.37;99334.63;3618961;39;20051;-66
2021/06/10 02:40:15;;;;;;;16.20;14.68;;;;;;;17.23;71.51;99334.34;3619419;39;20087;-66
2021/06/10 02:42:43;;;;;;;20.42;15.13;;;;;;;17.20;71.77;99329.44;3619011;39;20049;-65
2021/06/10 02:45:12;;;;;;;16.38;14.50;;;;;;;17.20;71.51;99324.09;3620006;39;20086;-65
2021/06/10 02:47:41;;;;;;;15.38;13.98;;;;;;;17.22;71.30;99329.19;3619943;39;20147;-65
2021/06/10 02:50:15;;;;;;;17.15;14.95;;;;;;;17.26;71.03;99327.72;3619996;39;20109;-65
2021/06/10 02:52:43;;;;;;;;;;;;;;;17.22;71.29;99326.53;3620531;39;20046;-67
2021/06/10 02:55:13;;;;;;;16.15;14.52;;;;;;;17.20;71.36;99326.75;3620088;39;19935;-66
2021/06/10 02:57:42;;;;;;;23.58;15.48;;;;;;;17.22;71.21;99322.00;3619134;39;20075;-63
2021/06/10 03:00:10;;;;;;;16.30;14.15;;;;;;;17.18;71.66;99326.16;3620183;39;20053;-66
2021/06/10 03:02:37;;;;;;;15.88;14.32;;;;;;;17.20;70.91;99325.94;3620222;39;20051;-66
2021/06/10 03:05:07;;;;;;;18.42;15.18;;;;;;;17.14;71.11;99318.81;3620198;39;20384;-64
2021/06/10 03:07:36;;;;;;;17.67;15.57;;;;;;;17.12;71.33;99324.38;3619797;39;20057;-67
2021/06/10 03:10:10;;;;;;;20.30;18.35;;;;;;;17.03;71.45;99321.19;3620086;39;20090;-65
2021/06/10 03:12:39;;;;;;;17.58;15.55;;;;;;;16.90;71.76;99325.81;3620248;39;20043;-66
2021/06/10 03:15:09;;;;;;;15.20;13.57;;;;;;;16.89;72.53;99322.34;3620342;39;20047;-66
2021/06/10 03:17:38;;;;;;;19.00;15.95;;;;;;;16.89;72.37;99319.69;3619458;39;20043;-66
2021/06/10 03:20:08;;;;;;;19.67;17.58;;;;;;;16.86;72.10;99314.81;3619896;39;20062;-66
2021/06/10 03:22:37;;;;;;;17.10;15.50;;;;;;;16.81;72.65;99318.09;3619969;39;20050;-66
2021/06/10 03:25:07;;;;;;;17.15;15.23;;;;;;;16.72;72.54;99322.06;3619782;39;20057;-66
2021/06/10 03:27:36;;;;;;;18.65;14.77;;;;;;;16.76;72.68;99319.81;3619487;39;20082;-66
2021/06/10 03:30:04;;;;;;;19.27;17.27;;;;;;;16.76;72.95;99325.97;3620246;39;20047;-65
2021/06/10 03:32:32;;;;;;;18.50;16.35;;;;;;;16.81;73.26;99318.09;3619442;39;20102;-66
2021/06/10 03:35:02;;;;;;;19.02;17.00;;;;;;;16.89;72.54;99318.88;3619937;39;20054;-67
2021/06/10 03:37:31;;;;;;;15.48;14.02;;;;;;;16.88;72.60;99323.38;3619394;39;20054;-67
2021/06/10 03:40:02;;;;;;;19.98;16.80;;;;;;;16.90;72.99;99320.50;3619596;39;20374;-68
2021/06/10 03:42:29;;;;;;;17.90;16.15;;;;;;;16.90;72.65;99323.16;3619670;39;20050;-68
2021/06/10 03:44:58;;;;;;;17.92;16.13;;;;;;;16.86;72.55;99329.97;3619513;39;20035;-67
2021/06/10 03:47:26;;;;;;;19.95;17.95;;;;;;;16.84;72.77;99319.53;3619374;39;20055;-66
2021/06/10 03:49:53;;;;;;;21.75;17.27;;;;;;;16.80;72.74;99323.69;3618457;39;20054;-68
2021/06/10 03:52:23;;;;;;;17.75;16.15;;;;;;;16.77;72.69;99319.59;3618385;39;20066;-67
2021/06/10 03:54:50;;;;;;;19.52;15.80;;;;;;;16.76;73.45;99322.47;3618518;39;20055;-67
2021/06/10 03:57:19;;;;;;;16.70;15.00;;;;;;;16.81;73.03;99323.44;3619187;39;20389;-66
2021/06/10 03:59:46;;;;;;;15.57;13.98;;;;;;;16.83;72.49;99320.56;3619468;39;20083;-67
2021/06/10 04:02:13;;;;;;;16.27;14.57;;;;;;;16.82;72.79;99316.28;3619371;39;20086;-66
2021/06/10 04:04:40;;;;;;;16.88;15.20;;;;;;;16.91;72.33;99322.16;3619284;39;20042;-67
2021/06/10 04:07:08;;;;;;;24.67;15.52;;;;;;;16.95;72.12;99320.66;3619258;39;20045;-67
2021/06/10 04:09:38;;;;;;;15.32;13.73;;;;;;;16.93;71.68;99323.53;3619569;39;20071;-67
2021/06/10 04:12:07;;;;;;;14.25;12.98;;;;;;;16.89;71.54;99319.69;3619210;39;20359;-67
2021/06/10 04:14:36;;;;;;;15.35;13.93;;;;;;;16.85;72.14;99326.50;3619317;39;20138;-68
2021/06/10 04:17:04;;;;;;;15.52;13.25;;;;;;;16.88;72.30;99331.41;3620082;39;20087;-67
2021/06/10 04:19:31;;;;;;;17.10;13.45;;;;;;;16.98;72.19;99326.38;3619442;39;20444;-67
2021/06/10 04:21:58;;;;;;;18.25;15.80;;;;;;;17.10;72.34;99326.44;3619095;39;20047;-68
2021/06/10 04:24:25;;;;;;;18.02;14.52;;;;;;;17.20;71.73;99329.44;3618134;39;20043;-67
2021/06/10 04:26:53;;;;;;;15.40;13.57;;;;;;;17.31;71.94;99326.03;3618913;39;20046;-67
2021/06/10 04:29:20;;;;;;;14.75;13.25;;;;;;;17.42;71.14;99316.41;3619279;39;20055;-67
2021/06/10 04:31:49;;;;;;;16.83;14.13;;;;;;;17.46;71.04;99314.94;3619424;39;20083;-67
2021/06/10 04:34:16;;;;;;;14.68;13.18;;;;;;;17.50;70.78;99326.00;3619278;39;20045;-67
2021/06/10 04:36:43;;;;;;;15.35;13.90;;;;;;;17.46;70.60;99327.47;3619126;39;20087;-68
2021/06/10 04:39:10;;;;;;;14.77;13.27;;;;;;;17.46;70.54;99324.81;3617789;39;20054;-67
2021/06/10 04:41:38;;;;;;;15.45;13.75;;;;;;;17.47;70.57;99324.59;3619145;39;20047;-67
2021/06/10 04:44:06;;;;;;;17.77;14.48;;;;;;;17.50;70.83;99334.00;3619086;39;20079;-67
2021/06/10 04:46:33;;;;;;;17.08;14.82;;;;;;;17.48;70.51;99328.91;3619049;39;20132;-68
2021/06/10 04:49:03;;;;;;;16.60;14.93;;;;;;;17.46;70.59;99327.47;3618853;39;20072;-67
2021/06/10 04:51:30;;;;;;;15.65;14.25;;;;;;;17.49;70.61;99327.84;3619136;39;20043;-68
2021/06/10 04:53:57;;;;;;;15.93;14.32;;;;;;;17.52;70.82;99338.09;3619020;39;20051;-67
2021/06/10 04:56:25;;;;;;;14.88;13.57;;;;;;;17.61;70.31;99346.63;3617710;39;20054;-67
2021/06/10 04:58:52;;;;;;;17.92;16.13;;;;;;;17.71;70.40;99340.72;3618516;39;20050;-67
2021/06/10 05:01:19;;;;;;;16.88;15.30;;;;;;;17.76;69.88;99335.56;3618783;39;20047;-66
2021/06/10 05:03:47;;;;;;;16.40;14.52;;;;;;;17.78;69.09;99336.16;3618904;39;20089;-67
2021/06/10 05:06:15;;;;;;;17.90;15.65;;;;;;;17.82;69.02;99340.00;3618952;39;20055;-67
2021/06/10 05:08:43;;;;;;;16.25;14.75;;;;;;;17.91;68.96;99335.16;3618617;39;20058;-66
2021/06/10 05:11:10;;;;;;;15.25;13.75;;;;;;;18.00;68.97;99334.63;3618797;39;20304;-66
2021/06/10 05:13:38;;;;;;;16.00;14.43;;;;;;;18.06;68.64;99340.91;3619026;39;20058;-66
2021/06/10 05:16:05;;;;;;;15.95;14.40;;;;;;;18.09;67.91;99331.63;3619041;39;20062;-68
2021/06/10 05:18:33;;;;;;;15.98;14.38;;;;;;;18.13;67.81;99335.47;3618575;39;20056;-68
2021/06/10 05:21:01;;;;;;;27.33;24.55;;;;;;;18.17;67.56;99339.31;3618958;39;20061;-66
2021/06/10 05:23:29;;;;;;;16.60;14.90;;;;;;;18.20;67.73;99336.16;3618009;39;20046;-67
2021/06/10 05:25:57;;;;;;;14.20;12.82;;;;;;;18.20;68.06;99344.19;3619099;39;20083;-67
2021/06/10 05:28:24;;;;;;;16.63;14.98;;;;;;;18.33;67.64;99344.00;3618744;39;20051;-66
2021/06/10 05:30:51;;;;;;;21.08;16.70;;;;;;;18.44;67.42;99339.72;3620885;39;20061;-66
2021/06/10 05:33:18;;;;;;;19.73;17.75;;;;;;;18.53;67.28;99341.84;3621807;39;20035;-65
2021/06/10 05:35:46;;;;;;;23.38;20.95;;;;;;;18.63;66.73;99340.44;3622031;39;20050;-66
2021/06/10 05:38:13;;;;;;;17.75;15.40;;;;;;;18.67;66.68;99342.41;3622435;39;20079;-66
2021/06/10 05:40:41;;;;;;;23.77;21.50;;;;;;;18.78;65.98;99343.50;3621530;39;20054;-65
2021/06/10 05:43:09;;;;;;;18.40;16.50;;;;;;;18.75;65.97;99336.75;3620025;39;20043;-66
2021/06/10 05:45:36;;;;;;;19.00;17.27;;;;;;;18.81;65.80;99340.34;3621521;39;20435;-66
2021/06/10 05:48:05;;;;;;;20.48;17.70;;;;;;;18.84;65.86;99337.22;3620982;39;20166;-67
2021/06/10 05:50:32;;;;;;;21.75;19.60;;;;;;;18.90;65.43;99346.16;3620806;39;20070;-67
2021/06/10 05:53:00;;;;;;;24.17;21.73;;;;;;;18.95;65.65;99340.94;3620250;39;20039;-66
2021/06/10 05:55:27;;;;;;;24.27;21.77;;;;;;;19.01;64.95;99340.00;3623785;39;20075;-67
2021/06/10 05:57:56;;;;;;;22.33;20.02;;;;;;;18.99;65.24;99344.78;3623225;39;20058;-67
2021/06/10 06:00:24;;;;;;;22.45;20.40;;;;;;;19.17;65.34;99344.63;3622311;39;20043;-68
2021/06/10 06:02:51;;;;;;;22.58;20.25;;;;;;;19.31;64.86;99339.84;3620303;39;20063;-67
2021/06/10 06:05:19;;;;;;;21.20;19.15;;;;;;;19.37;64.26;99338.88;3620108;39;20047;-67
2021/06/10 06:07:46;;;;;;;23.67;21.40;;;;;;;19.43;64.30;99343.31;3619860;39;20058;-67
2021/06/10 06:10:15;;;;;;;21.83;19.83;;;;;;;19.40;64.13;99340.28;3619946;39;20043;-66
2021/06/10 06:12:44;;;;;;;23.20;20.83;;;;;;;19.44;64.50;99342.25;3620143;39;20070;-67
2021/06/10 06:15:13;;;;;;;24.58;22.08;;;;;;;19.56;64.28;99350.28;3620287;39;20059;-68
2021/06/10 06:17:42;;;;;;;28.35;25.55;;;;;;;19.64;63.72;99357.16;3618990;39;20388;-68
2021/06/10 06:20:11;;;;;;;26.63;23.80;;;;;;;19.64;63.78;99343.75;3619001;39;20046;-68
2021/06/10 06:22:41;;;;;;;24.33;21.98;;;;;;;19.68;63.64;99345.72;3620096;39;20086;-66
2021/06/10 06:25:10;;;;;;;22.92;20.73;;;;;;;19.78;63.67;99353.94;3620293;39;20087;-67
2021/06/10 06:27:38;;;;;;;22.70;19.98;;;;;;;19.91;63.57;99350.16;3620332;39;20071;-68
2021/06/10 06:30:09;;;;;;;23.17;20.80;;;;;;;20.08;62.74;99344.03;3620134;39;20054;-67
2021/06/10 06:32:38;;;;;;;24.95;22.48;;;;;;;20.23;62.32;99355.03;3619963;39;20046;-66
2021/06/10 06:35:07;;;;;;;22.38;20.27;;;;;;;20.37;62.38;99363.56;3619914;39;20050;-67
2021/06/10 06:37:35;;;;;;;22.60;20.30;;;;;;;20.47;61.64;99353.84;3619631;39;20058;-67
2021/06/10 06:40:04;;;;;;;26.17;23.40;;;;;;;20.45;61.23;99360.50;3620004;39;20054;-68
2021/06/10 06:42:33;;;;;;;25.67;23.05;;;;;;;20.50;61.38;99360.63;3620341;39;20050;-67
2021/06/10 06:45:01;;;;;;;26.80;24.10;;;;;;;20.60;61.00;99358.09;3619753;39;20097;-67
2021/06/10 06:47:28;;;;;;;28.30;24.65;;;;;;;20.64;61.06;99367.28;3619727;39;20051;-67
2021/06/10 06:49:57;;;;;;;27.63;24.77;;;;;;;20.67;60.71;99358.75;3620229;39;20047;-68
2021/06/10 06:52:24;;;;;;;28.30;25.33;;;;;;;20.70;60.23;99360.97;3619934;39;20055;-67
2021/06/10 06:54:51;;;;;;;28.77;25.77;;;;;;;20.70;59.98;99363.63;3619848;39;20059;-67
2021/06/10 06:57:18;;;;;;;28.10;24.52;;;;;;;20.74;60.16;99358.59;3619474;39;20051;-67
2021/06/10 06:59:51;;;;;;;27.35;24.20;;;;;;;20.83;60.15;99357.13;3619855;39;20039;-67
2021/06/10 07:02:18;;;;;;;27.48;24.80;;;;;;;20.89;59.65;99363.38;3619622;39;20054;-67
2021/06/10 07:04:46;;;;;;;27.95;24.95;;;;;;;20.95;59.59;99359.72;3619922;39;20049;-65
2021/06/10 07:07:15;;;;;;;29.13;26.40;;;;;;;21.06;59.02;99360.66;3619456;39;20319;-67
2021/06/10 07:09:42;;;;;;;31.38;28.30;;;;;;;21.15;58.44;99361.88;3618739;39;20039;-68
2021/06/10 07:12:10;;;;;;;29.08;25.98;;;;;;;21.18;57.96;99353.28;3619683;39;20054;-68
2021/06/10 07:14:37;;;;;;;30.73;27.63;;;;;;;21.26;57.56;99350.19;3619755;39;20327;-67
2021/06/10 07:17:04;;;;;;;29.88;25.75;;;;;;;21.27;57.50;99354.50;3619364;39;20073;-67
2021/06/10 07:19:32;;;;;;;26.75;23.98;;;;;;;21.36;57.56;99355.72;3618718;39;20488;-66
2021/06/10 07:21:59;;;;;;;27.88;24.80;;;;;;;21.38;57.48;99344.72;3619659;39;20439;-66
2021/06/10 07:24:45;;;;;;;25.35;22.85;;;;;;;21.59;57.39;99346.56;3618822;39;20075;-65
2021/06/10 07:27:13;;;;;;;25.90;22.57;;;;;;;21.70;57.01;99350.22;3619490;39;20047;-66
2021/06/10 07:29:40;;;;;;;27.48;24.83;;;;;;;21.79;56.20;99348.69;3619756;39;20393;-66
2021/06/10 07:32:08;;;;;;;26.50;23.92;;;;;;;21.81;56.03;99340.38;3618827;39;20071;-66
2021/06/10 07:34:38;;;;;;;27.17;24.35;;;;;;;21.89;56.06;99348.81;3620150;39;20039;-66
2021/06/10 07:37:06;;;;;;;25.65;23.15;;;;;;;21.93;55.90;99358.00;3619346;39;20043;-67
2021/06/10 07:39:34;;;;;;;27.55;24.80;;;;;;;22.06;55.56;99350.59;3619830;39;20053;-66
2021/06/10 07:42:03;;;;;;;24.13;21.92;;;;;;;22.09;55.69;99353.59;3619734;39;20334;-66
2021/06/10 07:44:31;;;;;;;23.85;21.58;;;;;;;22.12;55.73;99354.94;3619771;39;20407;-66
2021/06/10 07:46:58;;;;;;;25.50;23.05;;;;;;;22.25;55.59;99362.66;3619567;39;20082;-67
2021/06/10 07:49:25;;;;;;;27.40;24.60;;;;;;;22.24;54.81;99352.94;3619420;39;20351;-67
2021/06/10 07:51:53;;;;;;;25.08;22.55;;;;;;;22.32;54.90;99351.66;3619608;39;20057;-66
2021/06/10 07:54:20;;;;;;;25.45;23.13;;;;;;;22.42;54.66;99357.97;3619139;39;20055;-67
2021/06/10 07:56:48;;;;;;;26.60;24.13;;;;;;;22.36;54.41;99358.16;3617944;39;20331;-66
2021/06/10 07:59:22;;;;;;;21.08;18.98;;;;;;;22.42;54.45;99360.66;3619294;39;20027;-65
2021/06/10 08:01:49;;;;;;;24.38;21.92;;;;;;;22.65;53.95;99362.16;3619440;39;20057;-65
2021/06/10 08:04:17;;;;;;;22.08;19.77;;;;;;;22.75;54.01;99356.88;3619719;39;20347;-66
2021/06/10 08:06:44;;;;;;;23.13;21.02;;;;;;;22.79;54.02;99359.06;3619777;39;20043;-67
2021/06/10 08:09:11;;;;;;;21.67;19.50;;;;;;;22.82;53.58;99356.66;3619216;39;20050;-65
2021/06/10 08:11:39;;;;;;;22.83;20.40;;;;;;;22.89;53.66;99359.09;3619565;39;20050;-65
2021/06/10 08:14:06;;;;;;;20.05;18.05;;;;;;;22.96;53.28;99354.34;3619345;39;20050;-66
2021/06/10 08:16:35;;;;;;;20.05;18.15;;;;;;;23.13;53.03;99356.88;3619280;39;20095;-66
2021/06/10 08:19:03;;;;;;;21.77;19.70;;;;;;;23.22;52.73;99352.59;3618948;39;20058;-66
2021/06/10 08:21:31;;;;;;;19.70;17.90;;;;;;;23.28;52.62;99353.44;3619252;39;20087;-66
2021/06/10 08:23:58;;;;;;;16.88;15.23;;;;;;;23.30;52.61;99348.59;3621030;39;20086;-68
2021/06/10 08:26:25;;;;;;;22.13;19.83;;;;;;;23.42;52.58;99347.28;3621953;39;20340;-66
2021/06/10 08:28:52;;;;;;;20.60;18.80;;;;;;;23.55;52.10;99347.88;3621716;39;20049;-66
2021/06/10 08:31:20;;;;;;;20.08;18.27;;;;;;;23.58;51.75;99344.66;3622381;39;20323;-66
2021/06/10 08:33:49;;;;;;;19.52;17.70;;;;;;;23.72;51.68;99338.53;3622170;39;20050;-66
2021/06/10 08:36:18;;;;;;;18.83;17.02;;;;;;;23.81;51.58;99338.84;3623495;39;20050;-66
2021/06/10 08:38:46;;;;;;;24.00;21.33;;;;;;;23.90;50.53;99345.31;3624471;39;20061;-66
2021/06/10 08:41:14;;;;;;;21.13;19.20;;;;;;;23.84;50.70;99348.28;3622787;39;20054;-66
2021/06/10 08:43:42;;;;;;;18.33;16.30;;;;;;;23.87;51.10;99345.84;3623591;39;20043;-66
2021/06/10 08:46:11;;;;;;;17.58;15.75;;;;;;;24.07;50.96;99344.28;3622744;39;20308;-66
2021/06/10 08:48:40;;;;;;;18.40;16.50;;;;;;;24.14;50.67;99342.13;3623907;39;20086;-66
2021/06/10 08:51:11;;;;;;;17.27;15.48;;;;;;;24.19;50.29;99345.63;3626358;39;20039;-66
2021/06/10 08:53:39;;;;;;;17.17;15.48;;;;;;;24.33;50.16;99345.94;3626708;39;20058;-66
2021/06/10 08:56:06;;;;;;;19.83;14.85;;;;;;;24.41;49.75;99350.00;3624847;39;20075;-67
2021/06/10 08:58:34;;;;;;;17.13;15.48;;;;;;;24.47;49.67;99338.13;3626709;39;20032;-67
2021/06/10 09:01:02;;;;;;;16.83;14.27;;;;;;;24.56;49.48;99339.19;3626707;39;20043;-67
2021/06/10 09:03:32;;;;;;;15.05;13.45;;;;;;;24.77;49.28;99336.47;3625477;39;20113;-66
2021/06/10 09:06:01;;;;;;;14.82;13.43;;;;;;;24.88;49.28;99338.88;3623681;39;20118;-66
2021/06/10 09:08:30;;;;;;;14.02;12.75;;;;;;;24.91;49.01;99332.13;3619751;39;20374;-66
2021/06/10 09:11:07;;;;;;;14.52;13.10;;;;;;;24.97;48.38;99333.72;3619916;39;20353;-66
2021/06/10 09:13:40;;;;;;;14.13;12.88;;;;;;;24.87;47.31;99345.38;3620729;39;20079;-65
2021/06/10 09:16:23;;;;;;;13.25;12.05;;;;;;;25.00;46.79;99341.31;3620658;39;20047;-65
2021/06/10 09:18:52;;;;;;;15.57;14.18;;;;;;;25.10;46.86;99351.31;3620109;39;20055;-66
2021/06/10 09:21:35;;;;;;;15.32;13.95;;;;;;;25.24;47.64;99340.72;3620479;39;20047;-66
2021/06/10 09:24:27;;;;;;;14.10;12.95;;;;;;;25.26;46.95;99338.53;3620344;39;20027;-66
2021/06/10 09:26:58;;;;;;;15.43;13.90;;;;;;;25.17;45.52;99333.69;3620169;39;20047;-65
2021/06/10 09:29:38;;;;;;;13.32;12.10;;;;;;;25.16;45.40;99334.00;3619494;39;20067;-66
2021/06/10 09:32:09;;;;;;;13.70;12.30;;;;;;;25.10;45.47;99329.66;3620575;39;20408;-66
2021/06/10 09:34:49;;;;;;;15.25;13.57;;;;;;;24.95;45.58;99330.50;3620302;39;20309;-66
2021/06/10 09:37:25;;;;;;;13.25;12.15;;;;;;;24.84;45.20;99339.72;3620328;39;20439;-66
2021/06/10 09:39:55;;;;;;;13.52;12.27;;;;;;;24.82;45.09;99342.69;3619286;39;20054;-66
2021/06/10 09:42:24;;;;;;;11.90;10.73;;;;;;;24.80;45.20;99342.16;3620369;39;20063;-65
2021/06/10 09:44:56;;;;;;;11.43;10.38;;;;;;;24.84;44.16;99337.00;3620325;39;20057;-65
2021/06/10 09:47:32;;;;;;;12.77;11.60;;;;;;;24.98;43.27;99324.53;3620208;39;20446;-65
2021/06/10 09:50:13;;;;;;;11.18;10.18;;;;;;;24.99;43.97;99339.69;3620467;39;20075;-65
2021/06/10 09:52:54;;;;;;;10.93;9.55;;;;;;;24.99;43.96;99339.69;3619175;39;20045;-66
2021/06/10 09:55:34;;;;;;;11.10;10.10;;;;;;;24.93;44.08;99340.75;3620211;39;20128;-66
2021/06/10 09:58:26;;;;;;;13.35;12.07;;;;;;;24.99;43.72;99336.97;3620138;39;20373;-66
2021/06/10 10:00:56;;;;;;;13.23;11.95;;;;;;;25.14;43.16;99336.16;3620388;39;20047;-66
2021/06/10 10:03:43;;;;;;;12.02;10.93;;;;;;;25.26;42.14;99328.53;3620464;39;20050;-65
2021/06/10 10:06:17;;;;;;;12.20;11.10;;;;;;;25.27;41.29;99330.16;3620524;39;20098;-67
2021/06/10 10:08:46;;;;;;;10.93;10.02;;;;;;;25.25;42.13;99326.91;3620005;39;20079;-65
2021/06/10 10:11:15;;;;;;;11.45;10.50;;;;;;;25.32;42.09;99323.94;3620136;39;20046;-66
2021/06/10 10:13:46;;;;;;;11.25;9.30;;;;;;;25.50;42.17;99317.06;3620134;39;20087;-66
2021/06/10 10:16:14;;;;;;;10.65;9.55;;;;;;;25.60;41.82;99314.31;3620175;39;20045;-66
2021/06/10 10:18:43;;;;;;;10.20;9.30;;;;;;;25.64;41.12;99310.78;3619511;39;20043;-66
2021/06/10 10:21:11;;;;;;;10.95;10.05;;;;;;;25.57;40.72;99298.63;3619616;39;20043;-66
2021/06/10 10:23:38;;;;;;;10.48;9.45;;;;;;;25.59;39.68;99299.97;3619879;39;20071;-66
2021/06/10 10:26:06;;;;;;;9.50;8.70;;;;;;;25.59;39.78;99302.66;3619925;39;20051;-66
2021/06/10 10:28:36;;;;;;;11.65;10.55;;;;;;;25.73;39.75;99302.06;3619773;39;20054;-66
2021/06/10 10:31:05;;;;;;;11.57;10.45;;;;;;;25.75;39.87;99297.97;3620113;39;20327;-67
2021/06/10 10:33:43;;;;;;;10.75;9.75;;;;;;;25.66;40.33;99299.66;3620101;39;20038;-66
2021/06/10 10:36:23;;;;;;;8.95;8.25;;;;;;;25.57;38.49;99291.31;3619803;39;20054;-65
2021/06/10 10:38:58;;;;;;;8.82;7.93;;;;;;;25.59;38.18;99291.84;3619817;39;20095;-65
2021/06/10 10:41:25;;;;;;;7.22;6.38;;;;;;;25.66;37.77;99296.97;3619810;39;20075;-66
2021/06/10 10:44:11;;;;;;;4.85;4.43;;;;;;;25.69;33.85;99296.41;3619848;39;20127;-67
2021/06/10 10:46:38;;;;;;;5.37;4.97;;;;;;;25.64;33.95;99291.84;3620048;39;20050;-65
2021/06/10 10:49:20;;;;;;;6.90;6.32;;;;;;;25.78;34.48;99283.09;3619513;39;20292;-67
2021/06/10 10:51:48;;;;;;;8.23;7.43;;;;;;;25.70;36.02;99285.28;3619864;39;20462;-65
2021/06/10 10:54:33;;;;;;;8.07;7.28;;;;;;;25.82;37.26;99276.03;3619716;39;20079;-65
2021/06/10 10:57:01;;;;;;;8.60;7.82;;;;;;;25.92;37.29;99284.06;3619642;39;20384;-66
2021/06/10 10:59:40;;;;;;;9.82;7.47;;;;;;;25.80;37.06;99281.75;3620062;39;20110;-66
2021/06/10 11:02:10;;;;;;;8.63;7.82;;;;;;;25.88;36.53;99280.31;3619896;39;20380;-66
2021/06/10 11:04:48;;;;;;;7.00;6.40;;;;;;;25.97;36.80;99262.41;3619920;39;20324;-65
2021/06/10 11:07:49;;;;;;;5.93;5.40;;;;;;;26.04;34.96;99272.88;3619549;39;20113;-65
2021/06/10 11:10:39;;;;;;;6.32;5.72;;;;;;;26.12;34.59;99275.00;3619980;39;20051;-66
2021/06/10 11:13:15;;;;;;;6.45;5.93;;;;;;;26.17;34.15;99264.13;3619863;39;20078;-66
2021/06/10 11:15:54;;;;;;;5.97;5.45;;;;;;;26.19;34.51;99268.16;3620158;39;20045;-65
2021/06/10 11:18:43;;;;;;;5.60;5.13;;;;;;;26.29;34.36;99271.88;3619396;39;20350;-64
2021/06/10 11:21:11;;;;;;;5.72;5.10;;;;;;;26.34;33.06;99269.94;3620680;39;20050;-64
2021/06/10 11:23:38;;;;;;;5.55;5.05;;;;;;;26.41;33.29;99261.47;3620481;39;20071;-65
2021/06/10 11:26:18;;;;;;;4.47;4.07;;;;;;;26.50;32.43;99272.53;3619678;39;20131;-65
2021/06/10 11:29:00;;;;;;;6.03;5.13;;;;;;;26.59;30.94;99266.22;3619568;39;20069;-66
2021/06/10 11:31:31;;;;;;;3.92;3.63;;;;;;;26.67;29.33;99268.28;3619217;39;20436;-67